Terminal Aerodrome Forecast
Issued by NWS

Home | Current Version | Previous Version | Text Only | Print | Product List | Glossary On
Versions: 1 2 3 4 5 6 7 8 9 10 11 12 13 14 15 16 17 18 19 20 21 22 23 24 25 26 27
000
FTUS42 KCAE 250520
TAFDNL
TAF
KDNL 250520Z 2506/2606 14008KT P6SM SCT150
     FM250800 10007KT P6SM SCT025
     FM251000 09006KT P6SM BKN015
     FM251400 12007KT P6SM BKN025
     FM251600 14008KT P6SM SCT035=

USA.gov is the U.S. government's official web portal to all federal, state and local government web resources and services.